Station: Coober Pedy Airport  

  Atmospheric Gas Attenuation - ITU Rec 676-11   ----------------- dB/100km -----------------
Date Time Temp RH % AH g/m3 Dew Point Wind Direction Speed kph Gust kph Barometer mB Rainfall Since 9am 24GHz 47GHz 76GHz 122GHz 134GHz 241GHz
06/09 09:30 14.7 55 6.92 5.8 30 37 1023.5 0 16.0 23.4 33.3 87.0 76.7 262.5
06/09 09:20 14.6 56 7.01 5.9 28 35 1023.6 0 16.2 23.6 33.7 88.0 77.9 266.7
06/09 09:10 14.5 56 6.97 5.8 28 35 1023.5 0 16.1 23.5 33.6 87.7 77.5 265.3
06/09 09:00 14 57 6.88 5.6 28 37 1023.4 0 15.9 23.5 33.4 87.3 76.9 263.0
06/09 08:50 13.9 57 6.83 5.5 30 35 1023.4 0 15.8 23.5 33.3 86.9 76.4 261.1
06/09 08:40 13.4 59 6.86 5.6 33 41 1023.2 0 15.9 23.6 33.6 87.8 77.2 264.0
06/09 08:30 13.1 60 6.85 5.5 32 39 1023.1 0 15.9 23.7 33.7 88.0 77.4 264.6
06/09 08:20 12.8 61 6.83 5.5 30 39 1023.1 0 15.9 23.7 33.7 88.1 77.4 264.7
06/09 08:10 12.9 61 6.88 5.6 28 33 1023 0 16.0 23.8 33.9 88.5 77.9 266.5
06/09 08:00 12.4 63 6.88 5.6 28 35 1022.8 0 16.0 23.9 34.1 89.0 78.4 268.2
06/09 07:50 12.2 64 6.91 5.6 26 33 1022.9 0 16.0 24.0 34.3 89.6 79.0 270.2
06/09 07:40 11.8 65 6.84 5.4 24 33 1022.8 0 15.9 24.0 34.2 89.3 78.5 268.4
06/09 07:30 11.5 67 6.92 5.6 24 32 1022.6 0 16.1 24.2 34.6 90.5 79.8 273.0
06/09 07:20 11.2 68 6.89 5.5 22 32 1022.5 0 16.0 24.2 34.6 90.5 79.7 272.6
06/09 07:10 10.9 69 6.86 5.4 22 32 1022.4 0 16.0 24.3 34.6 90.5 79.6 272.3
06/09 07:00 10.7 70 6.88 5.5 24 30 1021.9 0 16.0 24.3 34.8 90.9 80.1 273.8
06/09 06:50 10.5 71 6.89 5.5 22 28 1022 0 16.1 24.4 34.9 91.2 80.4 274.9
06/09 06:40 10.5 71 6.89 5.5 24 30 1021.9 0 16.1 24.4 34.9 91.2 80.4 274.9
06/09 06:30 10.4 71 6.84 5.4 22 28 1021.5 0 16.0 24.3 34.7 90.8 79.8 272.9
06/09 06:20 10.5 71 6.89 5.5 24 28 1021.7 0 16.1 24.4 34.9 91.2 80.4 274.9
06/09 06:10 10.6 71 6.93 5.6 22 28 1021.6 0 16.2 24.4 35.0 91.5 80.8 276.3
06/09 06:00 10.4 71 6.84 5.4 20 26 1021.5 0 16.0 24.3 34.7 90.8 79.8 272.9
06/09 05:50 10.4 71 6.84 5.4 20 26 1021.5 0 16.0 24.3 34.7 90.8 79.8 272.9
06/09 05:40 10.5 71 6.89 5.5 20 26 1021.4 0 16.1 24.4 34.9 91.2 80.4 274.8
06/09 05:30 10.5 71 6.89 5.5 22 24 1021.3 0 16.1 24.4 34.9 91.2 80.4 274.8
06/09 05:20 10.6 70 6.83 5.4 20 24 1021.1 0 15.9 24.2 34.6 90.4 79.5 271.7
06/09 05:10 10.7 70 6.88 5.5 19 22 1021.2 0 16.0 24.3 34.8 90.8 80.0 273.6
06/09 05:00 10.8 69 6.82 5.3 19 24 1020.7 0 15.9 24.2 34.5 90.0 79.1 270.4
06/09 04:50 10.9 69 6.86 5.4 20 24 1020.6 0 16.0 24.2 34.6 90.3 79.5 271.9
06/09 04:40 11 69 6.91 5.5 19 22 1020.7 0 16.1 24.2 34.7 90.7 80.1 273.8
06/09 04:30 11.1 68 6.85 5.4 19 22 1020.7 0 16.0 24.1 34.4 90.0 79.2 270.8
06/09 04:20 11.2 68 6.89 5.5 17 24 1020.7 0 16.0 24.2 34.6 90.3 79.6 272.2
06/09 04:10 11.2 68 6.89 5.5 17 20 1020.7 0 16.0 24.2 34.6 90.3 79.6 272.2
06/09 04:00 11.3 67 6.84 5.4 17 20 1020.6 0 15.9 24.1 34.3 89.7 78.9 269.6
06/09 03:50 11.5 66 6.82 5.4 17 20 1020.7 0 15.9 24.0 34.2 89.2 78.4 268.1
06/09 03:40 11.6 66 6.86 5.5 17 20 1020.7 0 16.0 24.0 34.3 89.5 78.8 269.5
06/09 03:30 11.9 65 6.88 5.5 19 22 1020.5 0 16.0 24.0 34.2 89.4 78.8 269.3
06/09 03:20 12 64 6.82 5.4 17 24 1020.6 0 15.9 23.8 33.9 88.7 77.9 266.4
06/09 03:10 12.2 63 6.8 5.4 20 26 1020.7 0 15.8 23.8 33.8 88.2 77.5 264.8
06/09 03:00 12.3 63 6.84 5.5 19 26 1020.7 0 15.9 23.8 33.9 88.5 77.9 266.3
06/09 02:50 12.5 62 6.82 5.4 20 26 1020.8 0 15.8 23.7 33.7 88.1 77.4 264.7
06/09 02:40 12.6 61 6.75 5.3 19 26 1020.7 0 15.7 23.6 33.4 87.3 76.4 261.3
06/09 02:30 12.7 61 6.79 5.4 17 22 1020.8 0 15.8 23.6 33.5 87.6 76.8 262.7
06/09 02:20 12.9 60 6.76 5.3 20 24 1021.1 0 15.7 23.5 33.4 87.1 76.3 260.8
06/09 02:10 13.2 59 6.77 5.4 20 30 1021.2 0 15.7 23.5 33.3 86.9 76.1 260.3
06/09 02:00 13.3 58 6.7 5.2 19 24 1021 0 15.6 23.3 33.0 86.1 75.2 256.9
06/09 01:50 13.3 57 6.59 5 20 24 1021.3 0 15.3 23.2 32.6 85.0 73.8 252.2
06/09 01:40 13.4 56 6.51 4.8 20 24 1021.2 0 15.2 23.0 32.2 84.1 72.7 248.4
06/09 01:30 13.7 54 6.39 4.6 19 22 1021.1 0 14.9 22.8 31.6 82.5 71.0 242.3
06/09 01:20 14 53 6.39 4.6 19 22 1021.4 0 14.9 22.7 31.5 82.3 70.7 241.4
06/09 01:10 14.3 52 6.39 4.6 19 24 1021.4 0 14.9 22.6 31.4 82.0 70.5 240.5
06/09 01:00 14.7 50 6.3 4.4 19 24 1021.1 0 14.7 22.4 30.9 80.7 69.0 235.5
06/09 00:50 14.8 49 6.21 4.2 19 20 1021.3 0 14.5 22.2 30.6 79.7 67.8 231.4
06/09 00:40 14.8 49 6.21 4.2 17 22 1021.3 0 14.5 22.2 30.6 79.7 67.8 231.4
06/09 00:30 14.5 50 6.22 4.2 13 22 1021.1 0 14.5 22.3 30.7 80.1 68.2 232.7
06/09 00:20 13.9 50 5.99 3.7 13 15 1021.3 0 14.0 22.1 30.1 78.4 66.0 224.7
06/09 00:10 14.5 49 6.09 3.9 15 15 1021.3 0 14.2 22.1 30.2 78.8 66.7 227.2
06/09 00:00 14.4 48 5.93 3.5 11 13 1021.2 0 13.9 21.9 29.7 77.4 64.8 220.8
05/09 23:50 15 47 6.03 3.8 13 15 1021.4 0 14.1 21.9 29.9 77.8 65.5 223.4
05/09 23:40 15.2 47 6.1 4 15 15 1021.5 0 14.2 22.0 30.0 78.3 66.2 225.7
05/09 23:30 15.5 46 6.08 3.9 15 15 1021.3 0 14.2 21.9 29.8 77.8 65.7 224.0
05/09 23:20 15.1 46 5.93 3.6 11 13 1021.6 0 13.9 21.8 29.5 76.7 64.3 219.0
05/09 23:10 15 47 6.03 3.8 13 15 1021.7 0 14.1 21.9 29.9 77.8 65.6 223.4
05/09 23:00 14.7 47 5.92 3.5 13 15 1021.6 0 13.9 21.8 29.6 77.0 64.5 219.6
05/09 22:50 14.8 47 5.95 3.6 15 15 1021.8 0 13.9 21.9 29.7 77.2 64.8 220.7
05/09 22:40 14.8 46 5.83 3.3 15 15 1021.8 0 13.7 21.7 29.2 76.1 63.4 215.7
05/09 22:30 14.9 45 5.74 3.1 13 15 1021.7 0 13.5 21.5 28.9 75.1 62.2 211.7
05/09 22:20 15.3 44 5.75 3.1 13 13 1021.9 0 13.5 21.5 28.8 74.9 62.0 211.1
05/09 22:10 15.1 44 5.68 3 13 13 1021.9 0 13.3 21.4 28.6 74.4 61.4 208.7
05/09 22:00 15.4 43 5.65 2.9 13 15 1021.6 0 13.3 21.3 28.4 73.8 60.8 206.7
05/09 21:50 15.5 43 5.68 3 11 11 1021.8 0 13.3 21.3 28.4 74.0 61.1 207.7
05/09 21:40 15.5 43 5.68 3 9 11 1021.8 0 13.3 21.3 28.4 74.0 61.1 207.7
05/09 21:30 15.4 41 5.39 2.2 9 11 1021.6 0 12.7 20.9 27.5 71.4 57.8 196.1
05/09 21:20 16.3 41 5.69 3 11 13 1021.8 0 13.3 21.2 28.2 73.4 60.6 206.1
05/09 21:10 16.4 40 5.58 2.8 11 13 1021.6 0 13.1 21.0 27.8 72.3 59.2 201.4
05/09 21:00 16.7 40 5.68 3.1 11 13 1021.3 0 13.3 21.0 28.0 72.9 60.1 204.6
05/09 20:50 16.8 39 5.58 2.8 9 13 1021.4 0 13.1 20.9 27.6 71.9 58.9 200.3
05/09 20:40 16.8 39 5.58 2.8 11 13 1021.2 0 13.1 20.9 27.6 71.9 58.9 200.3
05/09 20:30 16.8 39 5.58 2.8 13 13 1020.9 0 13.1 20.9 27.6 71.9 58.9 200.3
05/09 20:20 17.4 38 5.63 3 13 13 1020.9 0 13.2 20.8 27.6 71.8 59.0 200.8
05/09 20:10 17.6 38 5.7 3.1 13 13 1020.7 0 13.3 20.8 27.8 72.2 59.7 203.0
05/09 20:00 17.7 37 5.58 2.8 13 15 1020.5 0 13.0 20.6 27.3 71.0 58.2 198.0
05/09 19:50 18 37 5.68 3.1 13 13 1020.5 0 13.2 20.7 27.6 71.7 59.1 201.2
05/09 19:40 18.3 36 5.63 3 11 15 1020.3 0 13.1 20.6 27.3 71.0 58.4 198.5
05/09 19:30 18.5 36 5.7 3.2 11 13 1020 0 13.3 20.6 27.4 71.4 59.0 200.7
05/09 19:20 18.9 35 5.67 3.1 11 11 1019.9 0 13.2 20.5 27.2 70.8 58.3 198.5
05/09 19:10 19.4 34 5.67 3.2 13 15 1019.7 0 13.2 20.4 27.0 70.3 58.0 197.3
05/09 19:00 19.8 33 5.64 3.1 13 17 1019.5 0 13.1 20.2 26.8 69.7 57.4 195.2
05/09 18:50 20.4 32 5.66 3.2 17 20 1019.4 0 13.1 20.1 26.7 69.4 57.1 194.5
05/09 18:40 20.5 31 5.52 2.8 15 17 1019.2 0 12.8 19.9 26.2 68.0 55.6 188.9
05/09 18:30 21.1 30 5.53 2.9 19 24 1018.9 0 12.8 19.8 26.0 67.6 55.2 187.9
05/09 18:20 21.3 31 5.78 3.5 19 22 1018.9 0 13.3 20.1 26.8 69.6 57.8 196.9
05/09 18:10 21.6 30 5.69 3.3 20 26 1018.8 0 13.1 19.9 26.4 68.6 56.6 192.8
05/09 18:00 21.9 30 5.79 3.6 20 26 1018.7 0 13.3 20.0 26.6 69.2 57.5 195.8
05/09 17:50 22.2 30 5.89 3.8 20 28 1018.6 0 13.5 20.0 26.8 69.8 58.3 198.8
05/09 17:40 22.4 29 5.76 3.5 22 28 1018.6 0 13.3 19.8 26.3 68.5 56.8 193.5
05/09 17:30 22.5 29 5.79 3.6 22 28 1018.3 0 13.3 19.8 26.4 68.7 57.0 194.3
05/09 17:20 22.8 29 5.89 3.9 22 28 1018.4 0 13.5 19.9 26.6 69.3 57.9 197.4
05/09 17:10 22.8 28 5.69 3.4 22 30 1018.4 0 13.1 19.6 26.0 67.6 55.8 189.9
05/09 17:00 22.9 29 5.93 3.9 20 32 1018.2 0 13.6 19.9 26.7 69.5 58.2 198.6

Last Refresh: 06-Sep-2026 09:35:28

Bureau of Meteorology